ADDS TAF Board (Experimental) INFO Settings
IDs: Format: Expanded Condensed

KJFK - New York/Kennedy Int, NY, US

Issued at 2336 UTC 24 May 2015
Updated at: 0113 UTC 25 May 2015
Time0051Z 25/02Z 25/03Z 25/04Z 25/05Z 25/06Z 25/07Z 25/08Z 25/09Z 25/10Z 25/11Z 25/12Z 25/13Z 25/14Z
Type OBS PRVL PRVL PRVL PRVL PRVL PRVL PRVL PRVL PRVL PRVL PRVL PRVL PRVL
VIS 10 >6 >6 >6 >6 >6 >6 >6 >6 >6 >6 >6 >6 >6
CIG 250 250 250 130 130 130 130 130 130 130 130 130 130 130
Cover BKN BKN BKN BKN BKN BKN BKN BKN BKN BKN BKN BKN BKN BKN
FltCat VFR VFR VFR VFR VFR VFR VFR VFR VFR VFR VFR VFR VFR VFR
WX -- -- -- -- -- -- -- -- -- -- -- -- -- --
WDir 190 200 200 210 210 210 210 210 210 210 210 210 210 210
WSpd 15 13 13 7 7 7 7 7 7 7 7 7 7 7
WGst 22 -- -- -- -- -- -- -- -- -- -- -- -- --
R04/22
XWnd -5 -2 -2 -0 -0 -0 -0 -0 -0 -0 -0 -0 -0 -0
XGst -8 -- -- -- -- -- -- -- -- -- -- -- -- --
HWnd -14 -13 -13 -7 -7 -7 -7 -7 -7 -7 -7 -7 -7 -7
HGst -21 -- -- -- -- -- -- -- -- -- -- -- -- --
R13/31
XWnd -14 -13 -13 -7 -7 -7 -7 -7 -7 -7 -7 -7 -7 -7
XGst -21 -- -- -- -- -- -- -- -- -- -- -- -- --
HWnd 5 2 2 0 0 0 0 0 0 0 0 0 0 0
HGst 8 -- -- -- -- -- -- -- -- -- -- -- -- --

NOTE: TEMPO conditions in [brackets]. Keep in mind TEMPO conditions might be better (lower impact) than prevailing conditions.

Raw TAF
KJFK 242336Z 2500/2606 18017KT P6SM FEW050 BKN250
  FM250200 20013KT P6SM BKN250
  FM250400 21007KT P6SM BKN130
  FM251600 19011KT P6SM SCT130 BKN200
  FM251800 19018KT P6SM FEW050 BKN200
  FM252100 18023G30KT P6SM FEW050 BKN250
  FM260300 20015G22KT P6SM BKN250


Raw METAR
KJFK 250051Z 19015G22KT 10SM SCT150 BKN250 17/11 A3026 RMK AO2 SLP245 T01720111 $
KJFK 242351Z 19017G24KT 10SM SCT150 BKN250 18/10 A3025 RMK AO2 SLP243 T01780100 10228 20178 56004 $
KJFK 242251Z 18017KT 10SM SCT150 BKN250 19/10 A3025 RMK AO2 SLP243 T01890100 $

METAR Board
Radar Display
Forecast Discussion

TAF Board Legend

Potential Impact
Threat None Slight Moderate High
Visibility (sm) ≥5.1 5.1>X≥3 3>X≥1 <1
Ceiling (100 ft) ≥30.1 30.1>X≥10 10>X≥5 <5
Wind Speed (kt) <10 10≤X<20 20≤X<30 ≥30
Wind Gust (kt) <15 15≤X<25 25≤X<35 ≥35
Weather No Wx Reported VCTS,-TS,-FZRA,SN TS,FZRA +TS,+FZRA,+SN